Time;durP1;ratioP1;P1;durP2;ratioP2;P2;SDS_P1;SDS_P2;PMS_P1;PMS_P2;Temp;Humidity;BMP_temperature;BMP_pressure;BME280_temperature;BME280_humidity;BME280_pressure;Samples;Min_cycle;Max_cycle;Signal;HPM_P1;HPM_P2
2021/07/09 03:53:24;;;;;;;7.90;4.10;;;17.40;99.90;;;;;;4957782;28;20551;-69
2021/07/09 03:56:46;;;;;;;8.60;4.07;;;17.40;99.90;;;;;;4954960;28;20886;-69
2021/07/09 03:59:45;;;;;;;4.63;4.23;;;17.40;99.90;;;;;;4896627;28;20434;-68
2021/07/09 04:15:47;;;;;;;5.70;4.40;;;17.10;99.90;;;;;;4910227;29;20515;-69
2021/07/09 04:18:13;;;;;;;7.07;4.70;;;17.00;99.90;;;;;;4905060;29;20588;-68
2021/07/09 04:24:46;;;;;;;5.93;4.80;;;16.90;99.90;;;;;;4904964;29;20484;-68
2021/07/09 04:52:58;;;;;;;5.40;4.73;;;17.00;99.90;;;;;;4853207;29;20973;-74
2021/07/09 04:59:33;;;;;;;7.70;4.87;;;16.90;99.90;;;;;;4851509;29;20443;-73
2021/07/09 05:06:15;;;;;;;7.50;4.97;;;17.00;99.90;;;;;;4814043;29;20457;-74
2021/07/09 05:25:28;;;;;;;5.43;4.90;;;17.10;99.90;;;;;;4830440;29;20447;-74
2021/07/09 05:28:05;;;;;;;5.37;4.87;;;17.20;99.90;;;;;;4833771;29;20569;-73
2021/07/09 05:30:45;;;;;;;9.67;5.50;;;17.10;99.90;;;;;;4834716;29;20458;-73
2021/07/09 05:42:10;;;;;;;7.70;4.93;;;17.30;99.90;;;;;;4935870;29;20461;-70
2021/07/09 05:45:13;;;;;;;5.47;4.53;;;17.20;99.90;;;;;;4919948;29;20460;-71
2021/07/09 05:48:22;;;;;;;6.93;4.87;;;17.30;99.90;;;;;;4891753;29;20474;-71
2021/07/09 05:51:16;;;;;;;9.00;4.60;;;17.40;99.90;;;;;;4931749;29;20448;-71
2021/07/09 05:54:11;;;;;;;5.73;5.00;;;17.40;99.90;;;;;;4920522;29;20509;-71
2021/07/09 05:56:40;;;;;;;5.07;4.30;;;17.50;99.90;;;;;;4917810;29;20527;-71
2021/07/09 05:59:06;;;;;;;10.13;4.73;;;17.50;99.90;;;;;;4892743;29;20443;-71
2021/07/09 06:01:43;;;;;;;6.13;5.00;;;17.40;99.90;;;;;;4899763;29;20548;-72
2021/07/09 06:04:52;;;;;;;5.77;4.70;;;17.40;99.90;;;;;;4898754;29;20892;-71
2021/07/09 06:10:41;;;;;;;5.50;4.70;;;17.50;99.90;;;;;;4942923;28;20498;-69
2021/07/09 06:13:33;;;;;;;5.20;4.70;;;17.60;99.90;;;;;;4917466;29;20478;-69
2021/07/09 06:17:09;;;;;;;7.20;4.70;;;17.60;99.90;;;;;;4938397;29;20451;-70
2021/07/09 06:20:22;;;;;;;7.93;4.73;;;17.50;99.90;;;;;;4908651;29;20458;-70
2021/07/09 06:23:41;;;;;;;5.30;4.50;;;17.60;99.90;;;;;;4911766;29;21031;-66
2021/07/09 06:26:40;;;;;;;12.53;4.60;;;17.50;99.90;;;;;;4887593;29;20500;-66
2021/07/09 06:32:37;;;;;;;5.03;4.53;;;17.40;99.90;;;;;;4930173;29;20450;-67
2021/07/09 06:35:12;;;;;;;5.87;5.07;;;17.40;99.90;;;;;;4931203;29;20509;-67
2021/07/09 06:37:47;;;;;;;5.23;4.73;;;17.50;99.90;;;;;;4952641;28;20533;-66
2021/07/09 06:40:29;;;;;;;4.60;4.20;;;17.50;99.90;;;;;;4923982;28;20451;-67
2021/07/09 06:46:17;;;;;;;10.87;5.40;;;17.50;99.90;;;;;;4938671;28;20478;-66
2021/07/09 06:49:19;;;;;;;6.03;5.13;;;17.60;99.90;;;;;;4936628;28;20471;-67
2021/07/09 06:52:05;;;;;;;5.37;4.73;;;17.60;99.90;;;;;;4932121;28;20880;-67
2021/07/09 06:58:14;;;;;;;6.83;4.77;;;17.70;99.90;;;;;;4949623;28;20458;-67
2021/07/09 07:01:40;;;;;;;6.20;4.30;;;17.70;99.90;;;;;;4879930;29;20449;-66
2021/07/09 07:04:56;;;;;;;9.13;5.20;;;17.70;99.90;;;;;;4884225;29;20529;-67
2021/07/09 07:07:31;;;;;;;7.77;5.20;;;17.90;99.90;;;;;;4865604;29;20445;-67
2021/07/09 07:30:44;;;;;;;8.10;5.17;;;18.40;99.90;;;;;;4887299;29;20503;-66
2021/07/09 07:34:28;;;;;;;5.47;4.67;;;18.50;99.90;;;;;;4867799;29;20528;-66
2021/07/09 07:37:03;;;;;;;5.50;4.60;;;18.60;99.90;;;;;;4909346;28;20926;-68
2021/07/09 07:39:50;;;;;;;8.63;5.10;;;18.70;99.90;;;;;;4903917;29;20883;-66
2021/07/09 07:53:38;;;;;;;8.70;4.63;;;19.10;99.90;;;;;;4927011;29;20445;-71
2021/07/09 07:57:12;;;;;;;4.90;4.40;;;19.20;99.90;;;;;;4855457;29;20557;-71
2021/07/09 08:00:08;;;;;;;5.57;4.10;;;19.20;99.90;;;;;;4842549;29;20548;-69
2021/07/09 08:06:58;;;;;;;6.77;4.47;;;19.40;99.90;;;;;;4839746;29;20582;-70
2021/07/09 08:09:35;;;;;;;8.93;5.20;;;19.30;99.90;;;;;;4857227;29;20508;-70
2021/07/09 08:12:15;;;;;;;8.57;4.53;;;19.20;99.90;;;;;;4867147;29;20469;-70
2021/07/09 08:18:31;;;;;;;6.00;5.10;;;19.30;99.90;;;;;;4861640;29;20482;-71
2021/07/09 08:24:37;;;;;;;6.83;5.57;;;19.60;99.90;;;;;;4923754;29;21015;-67
2021/07/09 08:27:10;;;;;;;5.80;4.60;;;19.80;99.90;;;;;;4924486;29;20446;-68
2021/07/09 08:29:38;;;;;;;5.13;4.63;;;19.90;99.90;;;;;;4938934;29;20470;-67
2021/07/09 08:39:43;;;;;;;5.37;4.70;;;20.10;99.90;;;;;;4941307;28;20844;-68
2021/07/09 08:43:15;;;;;;;5.87;4.37;;;20.10;99.90;;;;;;4889190;29;20484;-68
2021/07/09 08:59:33;;;;;;;7.80;6.10;;;20.20;99.90;;;;;;4836792;29;20660;-67
2021/07/09 09:09:42;;;;;;;7.63;6.03;;;20.50;99.90;;;;;;4830889;29;20469;-68
2021/07/09 09:12:18;;;;;;;10.10;5.63;;;20.50;99.90;;;;;;4821828;29;20559;-67
2021/07/09 09:28:19;;;;;;;8.70;6.00;;;21.10;99.90;;;;;;4845436;29;20847;-68
2021/07/09 09:31:25;;;;;;;9.43;5.93;;;21.40;99.90;;;;;;4889296;29;20442;-68
2021/07/09 09:40:56;;;;;;;7.40;6.80;;;21.90;99.90;;;;;;4941797;28;20429;-68
2021/07/09 09:43:41;;;;;;;8.30;6.33;;;21.80;99.90;;;;;;4908624;28;20466;-67
2021/07/09 09:46:14;;;;;;;9.60;6.47;;;21.90;99.90;;;;;;4924353;28;20493;-68
2021/07/09 09:49:11;;;;;;;7.70;6.40;;;21.90;99.90;;;;;;4928305;28;20548;-68
2021/07/09 09:51:53;;;;;;;7.57;6.60;;;21.90;99.90;;;;;;4919656;28;20531;-67
2021/07/09 09:55:29;;;;;;;7.03;6.30;;;21.90;99.90;;;;;;4932859;28;20529;-67
2021/07/09 10:02:05;;;;;;;8.80;7.93;;;22.10;99.90;;;;;;4943903;28;20497;-68
2021/07/09 10:04:37;;;;;;;7.57;6.70;;;22.20;99.90;;;;;;4937948;28;20497;-68
2021/07/09 10:07:11;;;;;;;8.47;7.33;;;21.90;99.90;;;;;;4920735;28;20443;-67
2021/07/09 10:10:04;;;;;;;10.60;7.67;;;21.80;99.90;;;;;;4938662;28;20493;-68
2021/07/09 10:16:16;;;;;;;7.30;6.53;;;21.80;99.90;;;;;;4918918;29;20443;-67
2021/07/09 10:18:45;;;;;;;9.67;6.37;;;21.80;99.90;;;;;;4887317;29;20936;-69
2021/07/09 10:21:14;;;;;;;6.67;5.97;;;21.90;99.90;;;;;;4903942;29;21207;-68
2021/07/09 10:23:47;;;;;;;7.47;5.87;;;22.10;99.90;;;;;;4935981;28;20438;-68
2021/07/09 10:26:18;;;;;;;5.60;5.00;;;22.10;99.90;;;;;;4946566;28;20911;-68
2021/07/09 10:32:49;;;;;;;7.20;5.50;;;22.20;99.90;;;;;;4945751;28;20977;-67
2021/07/09 10:35:35;;;;;;;5.83;5.33;;;22.40;99.90;;;;;;4925651;28;20478;-67
2021/07/09 10:42:20;;;;;;;6.50;5.80;;;22.50;99.90;;;;;;4943960;28;20421;-68
2021/07/09 10:45:48;;;;;;;6.60;5.50;;;22.60;99.90;;;;;;4925059;28;20842;-68
2021/07/09 10:48:16;;;;;;;6.40;5.80;;;22.90;99.90;;;;;;4928711;28;20497;-67
2021/07/09 10:50:50;;;;;;;6.90;6.23;;;22.70;99.90;;;;;;4929270;28;21564;-68
2021/07/09 10:53:35;;;;;;;14.90;6.73;;;22.60;99.90;;;;;;4947418;28;20522;-67
2021/07/09 10:56:15;;;;;;;8.53;7.50;;;22.40;99.90;;;;;;4895485;28;20835;-67
2021/07/09 10:59:02;;;;;;;10.67;7.13;;;22.00;99.90;;;;;;4944820;28;20981;-68
2021/07/09 11:01:35;;;;;;;10.70;7.57;;;21.40;99.90;;;;;;4930226;28;20466;-68
2021/07/09 11:07:29;;;;;;;8.53;7.83;;;21.20;99.90;;;;;;4943199;28;20502;-68
2021/07/09 11:10:07;;;;;;;10.53;8.70;;;21.40;99.90;;;;;;4926744;28;20500;-68
2021/07/09 11:13:10;;;;;;;38.53;12.37;;;21.50;99.90;;;;;;4947768;28;20450;-67
2021/07/09 11:15:44;;;;;;;11.10;7.70;;;21.70;99.90;;;;;;4926212;28;20454;-68
2021/07/09 11:18:59;;;;;;;8.70;7.80;;;21.90;99.90;;;;;;4939046;28;20440;-68
2021/07/09 11:21:49;;;;;;;11.80;7.23;;;22.00;99.90;;;;;;4896341;29;20532;-68
2021/07/09 11:24:24;;;;;;;23.37;9.60;;;21.90;99.90;;;;;;4900845;29;20451;-68
2021/07/09 11:27:41;;;;;;;386.83;55.73;;;22.30;99.90;;;;;;4935617;28;20445;-67
2021/07/09 11:30:27;;;;;;;13.20;8.00;;;22.60;99.90;;;;;;4941611;28;20459;-67
2021/07/09 11:32:59;;;;;;;14.87;8.43;;;22.90;99.90;;;;;;4911354;28;20458;-68
2021/07/09 11:36:25;;;;;;;16.53;8.50;;;23.20;99.90;;;;;;4943309;28;20444;-68
2021/07/09 11:39:15;;;;;;;9.37;6.67;;;23.70;99.90;;;;;;4943946;28;20454;-68
2021/07/09 11:42:00;;;;;;;10.67;7.20;;;23.70;99.90;;;;;;4939344;28;20468;-67
2021/07/09 11:44:44;;;;;;;9.17;8.20;;;23.60;99.90;;;;;;4945889;28;21180;-67
2021/07/09 11:47:15;;;;;;;11.83;9.73;;;23.80;99.90;;;;;;4943748;28;21409;-67
2021/07/09 11:49:45;;;;;;;7.23;6.63;;;23.80;99.90;;;;;;4944409;28;20478;-65
2021/07/09 11:52:41;;;;;;;11.63;7.77;;;23.50;99.90;;;;;;4930851;28;20610;-67
2021/07/09 11:59:12;;;;;;;6.77;6.17;;;22.90;99.90;;;;;;4936440;28;20957;-67
2021/07/09 12:01:37;;;;;;;6.97;6.30;;;22.40;99.90;;;;;;4949625;28;20457;-66
2021/07/09 12:04:54;;;;;;;;;;;;;;;;;;;;;
2021/07/09 12:07:55;;;;;;;5.70;5.20;;;22.50;99.90;;;;;;4944767;28;20191;-68
2021/07/09 12:11:25;;;;;;;5.43;4.93;;;23.70;99.90;;;;;;4942466;28;20475;-68
2021/07/09 12:14:13;;;;;;;6.20;5.70;;;25.20;99.90;;;;;;4942885;28;20497;-68
2021/07/09 12:21:01;;;;;;;6.10;5.57;;;28.50;99.90;;;;;;4939033;28;20446;-68
2021/07/09 12:23:33;;;;;;;5.23;4.83;;;29.40;99.90;;;;;;4958663;28;20595;-69
2021/07/09 12:26:09;;;;;;;5.97;5.57;;;29.70;99.90;;;;;;4954237;28;20978;-68
2021/07/09 12:32:06;;;;;;;5.70;5.10;;;30.30;99.90;;;;;;4856820;29;20485;-69
2021/07/09 12:34:32;;;;;;;5.93;5.50;;;30.20;99.90;;;;;;4930961;28;20430;-68
2021/07/09 12:51:00;;;;;;;6.30;5.80;;;30.70;99.90;;;;;;4903120;29;20527;-67
2021/07/09 13:03:47;;;;;;;7.50;5.57;;;26.10;99.90;;;;;;5362168;23;20843;-75
2021/07/09 13:06:15;;;;;;;10.30;9.30;;;25.60;99.90;;;;;;4968454;28;20453;-75
2021/07/09 13:08:46;;;;;;;6.70;6.13;;;25.10;99.90;;;;;;4970823;28;20673;-80
2021/07/09 13:11:17;;;;;;;7.20;6.60;;;24.40;99.90;;;;;;4971215;28;20451;-77
2021/07/09 13:13:52;;;;;;;7.60;7.00;;;24.00;99.90;;;;;;4971681;28;20459;-79
2021/07/09 13:16:20;;;;;;;7.37;6.67;;;23.70;99.90;;;;;;4992948;28;20515;-79
2021/07/09 13:18:56;;;;;;;7.57;6.77;;;23.60;99.90;;;;;;4975170;28;20433;-78
2021/07/09 13:21:27;;;;;;;6.97;6.37;;;23.60;99.90;;;;;;4991320;28;20446;-79
2021/07/09 13:24:09;;;;;;;7.30;6.17;;;23.60;99.90;;;;;;4997426;28;20462;-75
2021/07/09 13:26:46;;;;;;;7.40;6.03;;;23.80;99.90;;;;;;4986918;28;20447;-75
2021/07/09 13:29:21;;;;;;;5.93;5.43;;;23.80;99.90;;;;;;4993174;28;20552;-75
2021/07/09 13:32:00;;;;;;;5.20;4.80;;;23.90;99.90;;;;;;4983350;28;20451;-75
2021/07/09 13:34:28;;;;;;;6.60;6.00;;;23.90;99.90;;;;;;4991694;28;20462;-76
2021/07/09 13:36:54;;;;;;;9.60;5.20;;;23.90;99.90;;;;;;4989700;28;20428;-74
2021/07/09 13:39:21;;;;;;;319.17;45.00;;;23.80;99.90;;;;;;4992546;28;20989;-76
2021/07/09 13:41:47;;;;;;;12.80;7.20;;;23.90;99.90;;;;;;4994974;28;20511;-75
2021/07/09 13:44:13;;;;;;;35.23;8.07;;;24.00;99.90;;;;;;4992324;28;20666;-75
2021/07/09 13:46:39;;;;;;;7.60;5.27;;;23.90;99.90;;;;;;4996856;28;20432;-76
2021/07/09 13:49:06;;;;;;;34.23;10.97;;;24.00;99.90;;;;;;4992287;28;20472;-75
2021/07/09 13:51:33;;;;;;;339.73;50.97;;;24.10;99.90;;;;;;4996675;28;20177;-75
2021/07/09 13:53:58;;;;;;;201.50;30.37;;;25.00;99.90;;;;;;4980969;28;20451;-77
2021/07/09 13:56:24;;;;;;;12.70;6.20;;;25.30;99.90;;;;;;5001079;28;20450;-75
2021/07/09 13:58:51;;;;;;;12.13;5.63;;;25.50;99.90;;;;;;5002658;28;20207;-74
2021/07/09 14:01:17;;;;;;;4.10;3.80;;;25.50;99.90;;;;;;4997443;28;20212;-75
2021/07/09 14:03:43;;;;;;;41.20;9.90;;;25.80;99.90;;;;;;5000489;28;20475;-76
2021/07/09 14:06:10;;;;;;;15.80;5.93;;;25.60;99.90;;;;;;4998175;28;20192;-75
2021/07/09 14:08:37;;;;;;;4.50;4.10;;;25.40;99.90;;;;;;4992969;28;20563;-75
2021/07/09 14:11:03;;;;;;;5.30;4.90;;;25.50;99.90;;;;;;4997853;28;20420;-75
2021/07/09 14:13:31;;;;;;;6.40;5.03;;;25.30;99.90;;;;;;4995237;28;20447;-75
2021/07/09 14:15:59;;;;;;;5.53;5.00;;;25.30;99.90;;;;;;4980773;28;20791;-76
2021/07/09 14:18:25;;;;;;;5.43;4.93;;;24.90;99.90;;;;;;4999087;28;20977;-76
2021/07/09 14:20:51;;;;;;;9.93;6.07;;;24.80;99.90;;;;;;4992340;28;20527;-75
2021/07/09 14:23:18;;;;;;;6.03;5.47;;;24.50;99.90;;;;;;4996244;28;20444;-75
2021/07/09 14:25:45;;;;;;;6.17;5.67;;;24.30;99.90;;;;;;4997927;28;20439;-75
2021/07/09 14:28:11;;;;;;;5.90;5.30;;;24.10;99.90;;;;;;4982202;28;20810;-75
2021/07/09 14:30:39;;;;;;;5.70;5.20;;;23.90;99.90;;;;;;4998718;28;20440;-75
2021/07/09 14:33:06;;;;;;;4.73;4.33;;;23.60;99.90;;;;;;4998798;28;20839;-75
2021/07/09 14:35:32;;;;;;;4.57;4.17;;;23.50;99.90;;;;;;4996455;28;20443;-77
2021/07/09 14:37:58;;;;;;;3.47;3.20;;;23.20;99.90;;;;;;4996154;28;20428;-77
2021/07/09 14:40:24;;;;;;;3.73;3.03;;;23.40;99.90;;;;;;4996130;28;20525;-75
2021/07/09 14:42:50;;;;;;;3.80;2.90;;;23.60;99.90;;;;;;4992937;28;20227;-76
2021/07/09 14:45:17;;;;;;;4.40;4.00;;;23.90;99.90;;;;;;4996732;28;20781;-74
2021/07/09 14:47:43;;;;;;;7.20;3.83;;;24.50;99.90;;;;;;4995123;28;20263;-78
2021/07/09 14:50:17;;;;;;;6.93;4.17;;;25.00;99.90;;;;;;4994586;28;20518;-76
2021/07/09 14:52:43;;;;;;;5.17;4.73;;;25.70;99.90;;;;;;4993441;28;20462;-76
2021/07/09 14:55:11;;;;;;;8.03;4.87;;;26.20;99.90;;;;;;4993306;28;20441;-77
2021/07/09 14:57:38;;;;;;;4.43;4.03;;;26.80;99.90;;;;;;4996261;28;20485;-77
2021/07/09 15:00:09;;;;;;;6.30;5.80;;;27.30;99.90;;;;;;5006828;28;20436;-75
2021/07/09 15:02:36;;;;;;;5.43;4.93;;;27.50;99.90;;;;;;5023603;28;21237;-73
2021/07/09 15:05:02;;;;;;;5.63;4.63;;;27.50;99.90;;;;;;5008526;28;20433;-76
2021/07/09 15:07:28;;;;;;;5.07;4.43;;;27.30;99.90;;;;;;5022529;28;20439;-75
2021/07/09 15:09:53;;;;;;;5.90;5.00;;;26.80;99.90;;;;;;5021828;28;20588;-74
2021/07/09 15:12:19;;;;;;;4.43;4.03;;;26.50;99.90;;;;;;5003684;28;20185;-77
2021/07/09 15:14:45;;;;;;;4.37;4.00;;;26.00;99.90;;;;;;5002215;28;20261;-75
2021/07/09 15:17:12;;;;;;;5.00;4.60;;;25.60;99.90;;;;;;4998399;28;20440;-75
2021/07/09 15:19:37;;;;;;;4.97;4.50;;;25.40;99.90;;;;;;4978327;28;20455;-76
2021/07/09 15:22:04;;;;;;;5.10;4.60;;;25.20;99.90;;;;;;4995550;28;20456;-75
2021/07/09 15:24:29;;;;;;;5.73;4.40;;;24.90;99.90;;;;;;4995997;28;20448;-75
2021/07/09 15:26:55;;;;;;;4.80;4.40;;;24.70;99.90;;;;;;4994876;28;20790;-74
2021/07/09 15:29:21;;;;;;;5.37;4.13;;;24.40;99.90;;;;;;4994975;28;20547;-75
2021/07/09 15:31:47;;;;;;;4.63;4.23;;;24.30;99.90;;;;;;4993743;28;20871;-75
2021/07/09 15:34:14;;;;;;;5.17;4.77;;;24.30;99.90;;;;;;4991379;28;20205;-76
2021/07/09 15:36:43;;;;;;;8.20;6.30;;;24.40;99.90;;;;;;4993809;28;20581;-75
2021/07/09 15:39:10;;;;;;;6.70;5.30;;;24.30;99.90;;;;;;4990904;28;20455;-76
2021/07/09 15:41:36;;;;;;;5.40;4.90;;;24.20;99.90;;;;;;4993179;28;20487;-75
2021/07/09 15:44:03;;;;;;;5.10;4.60;;;24.10;99.90;;;;;;4994130;28;20751;-76
2021/07/09 15:46:28;;;;;;;5.07;4.67;;;23.80;99.90;;;;;;4990265;28;20443;-75
2021/07/09 15:48:54;;;;;;;4.90;4.50;;;23.10;99.90;;;;;;4991167;28;20460;-75
2021/07/09 15:51:20;;;;;;;5.63;5.00;;;22.80;99.90;;;;;;4990108;28;20704;-77
2021/07/09 15:53:45;;;;;;;5.67;5.07;;;22.60;99.90;;;;;;4999775;28;20516;-78
2021/07/09 15:56:12;;;;;;;5.57;5.17;;;22.80;99.90;;;;;;4994596;28;20181;-78
2021/07/09 15:58:38;;;;;;;5.40;5.00;;;22.70;99.90;;;;;;4997227;28;20182;-78
2021/07/09 16:01:16;;;;;;;6.90;6.03;;;23.00;99.90;;;;;;4995306;28;20445;-78
2021/07/09 16:03:41;;;;;;;6.60;6.00;;;23.10;99.90;;;;;;4999540;28;20633;-77
2021/07/09 16:06:07;;;;;;;6.23;5.73;;;23.00;99.90;;;;;;4995925;28;20440;-77
2021/07/09 16:08:33;;;;;;;7.40;6.70;;;23.20;99.90;;;;;;4996412;28;21921;-75
2021/07/09 16:10:59;;;;;;;6.97;5.73;;;22.90;99.90;;;;;;4997158;28;20471;-78
2021/07/09 16:13:25;;;;;;;6.57;5.97;;;22.90;99.90;;;;;;4995335;28;20308;-76
2021/07/09 16:15:50;;;;;;;7.80;7.10;;;22.80;99.90;;;;;;4995996;28;20204;-78
2021/07/09 16:18:19;;;;;;;7.00;6.33;;;23.00;99.90;;;;;;4995316;28;20190;-77
2021/07/09 16:20:44;;;;;;;7.00;6.37;;;22.30;99.90;;;;;;5000299;28;21055;-78
2021/07/09 16:23:10;;;;;;;7.90;6.40;;;22.00;99.90;;;;;;4974538;28;20495;-77
2021/07/09 16:25:36;;;;;;;7.53;6.90;;;22.20;99.90;;;;;;4999828;28;20194;-78
2021/07/09 16:28:02;;;;;;;8.10;7.00;;;22.50;99.90;;;;;;4991804;28;20194;-78
2021/07/09 16:30:28;;;;;;;7.60;6.90;;;22.70;99.90;;;;;;4987885;28;20205;-78
2021/07/09 16:32:55;;;;;;;7.53;6.83;;;22.70;99.90;;;;;;4996038;28;20482;-79
2021/07/09 16:35:22;;;;;;;7.53;6.83;;;22.60;99.90;;;;;;4999965;28;20259;-78
2021/07/09 16:37:49;;;;;;;7.87;7.17;;;22.70;99.90;;;;;;4998446;28;20486;-77
2021/07/09 16:40:15;;;;;;;7.67;6.97;;;22.60;99.90;;;;;;4996701;28;20960;-76
2021/07/09 16:42:41;;;;;;;8.80;8.10;;;22.50;99.90;;;;;;5000060;28;20542;-77
2021/07/09 16:45:08;;;;;;;7.83;6.80;;;22.40;99.90;;;;;;4997780;28;20435;-77
2021/07/09 16:47:35;;;;;;;8.30;7.60;;;22.30;99.90;;;;;;4999318;28;20441;-77
2021/07/09 16:50:05;;;;;;;12.20;7.70;;;22.30;99.90;;;;;;4995840;28;20503;-77
2021/07/09 16:52:31;;;;;;;6.67;6.03;;;22.50;99.90;;;;;;5003719;28;20534;-78
2021/07/09 16:54:57;;;;;;;8.50;7.70;;;22.60;99.90;;;;;;4999130;28;21032;-78
2021/07/09 16:57:22;;;;;;;7.67;6.97;;;22.60;99.90;;;;;;4999013;28;20432;-78
2021/07/09 16:59:48;;;;;;;8.47;7.57;;;22.40;99.90;;;;;;4979476;28;20181;-78
2021/07/09 17:02:14;;;;;;;7.47;6.87;;;22.40;99.90;;;;;;4998273;28;20922;-77
2021/07/09 17:04:40;;;;;;;8.77;7.97;;;22.00;99.90;;;;;;4993744;28;20189;-76
2021/07/09 17:07:06;;;;;;;7.80;7.20;;;21.80;99.90;;;;;;4997306;28;20197;-78
2021/07/09 17:09:32;;;;;;;8.40;7.70;;;21.80;99.90;;;;;;4997563;28;20205;-76
2021/07/09 17:11:58;;;;;;;9.37;8.37;;;21.80;99.90;;;;;;4995929;28;20456;-77
2021/07/09 17:14:23;;;;;;;9.60;7.97;;;21.70;99.90;;;;;;5000667;28;20467;-78
2021/07/09 17:16:49;;;;;;;8.97;8.07;;;21.50;99.90;;;;;;4996637;28;20195;-76
2021/07/09 17:19:15;;;;;;;9.00;7.93;;;21.40;99.90;;;;;;4996360;28;20189;-77
2021/07/09 17:21:40;;;;;;;9.10;8.20;;;21.40;99.90;;;;;;4999383;28;20209;-77
2021/07/09 17:24:06;;;;;;;9.30;8.47;;;21.40;99.90;;;;;;4994216;28;20212;-77
2021/07/09 17:26:32;;;;;;;11.00;8.57;;;21.20;99.90;;;;;;4996048;28;20641;-77
2021/07/09 17:28:58;;;;;;;8.20;7.50;;;21.10;99.90;;;;;;4992966;28;20217;-75
2021/07/09 17:31:23;;;;;;;8.70;7.90;;;21.00;99.90;;;;;;4992911;28;20573;-76
2021/07/09 17:33:49;;;;;;;8.57;7.77;;;20.90;99.90;;;;;;4966746;28;20216;-76
2021/07/09 17:36:15;;;;;;;8.30;7.50;;;20.90;99.90;;;;;;4993686;28;20192;-76
2021/07/09 17:38:41;;;;;;;9.83;8.20;;;20.80;99.90;;;;;;4993533;28;21007;-76
2021/07/09 17:41:06;;;;;;;13.23;8.83;;;20.70;99.90;;;;;;4999002;28;20203;-77
2021/07/09 17:43:32;;;;;;;8.17;7.47;;;20.90;99.90;;;;;;5002384;28;20217;-76
2021/07/09 17:45:58;;;;;;;8.90;8.07;;;21.00;99.90;;;;;;4996030;28;20214;-77
2021/07/09 17:48:25;;;;;;;8.23;7.53;;;20.90;99.90;;;;;;4998941;28;20201;-77
2021/07/09 17:50:50;;;;;;;8.40;7.67;;;21.00;99.90;;;;;;4992198;28;20532;-76
2021/07/09 17:53:19;;;;;;;8.50;7.50;;;20.90;99.90;;;;;;4994597;28;20876;-75
2021/07/09 17:55:45;;;;;;;8.50;7.70;;;20.90;99.90;;;;;;4993452;28;20196;-77
2021/07/09 17:58:11;;;;;;;8.20;7.40;;;20.90;99.90;;;;;;4990360;28;20449;-76
2021/07/09 18:00:38;;;;;;;7.03;6.43;;;21.10;99.90;;;;;;4992111;28;20551;-75
2021/07/09 18:03:04;;;;;;;8.60;7.60;;;21.20;99.90;;;;;;4994367;28;20275;-77
2021/07/09 18:05:30;;;;;;;7.43;6.70;;;21.40;99.90;;;;;;4973212;28;20453;-75
2021/07/09 18:07:56;;;;;;;7.40;6.70;;;21.30;99.90;;;;;;4990577;28;20807;-75
2021/07/09 18:10:21;;;;;;;7.77;6.97;;;21.40;99.90;;;;;;4991303;28;20266;-77
2021/07/09 18:12:47;;;;;;;7.73;7.03;;;21.40;99.90;;;;;;4990636;28;20216;-75
2021/07/09 18:15:15;;;;;;;7.33;6.63;;;21.30;99.90;;;;;;4994637;28;20200;-76
2021/07/09 18:17:40;;;;;;;8.03;7.23;;;21.30;99.90;;;;;;4995760;28;20240;-77
2021/07/09 18:20:09;;;;;;;9.50;8.30;;;21.20;99.90;;;;;;4963134;28;20911;-76
2021/07/09 18:22:35;;;;;;;8.83;8.03;;;21.10;99.90;;;;;;4990854;28;20645;-77
2021/07/09 18:25:02;;;;;;;8.23;7.53;;;21.10;99.90;;;;;;4996457;28;20432;-77
2021/07/09 18:27:27;;;;;;;7.23;6.57;;;21.10;99.90;;;;;;4993780;28;20443;-76
2021/07/09 18:29:53;;;;;;;8.50;7.80;;;21.00;99.90;;;;;;4996021;28;20562;-74
2021/07/09 18:32:19;;;;;;;8.33;7.63;;;20.80;99.90;;;;;;4996545;28;20624;-78
2021/07/09 18:34:45;;;;;;;7.57;6.83;;;20.70;99.90;;;;;;4991557;28;20193;-76
2021/07/09 18:37:12;;;;;;;9.40;8.40;;;20.70;99.90;;;;;;4996663;28;20789;-75
2021/07/09 18:39:38;;;;;;;8.57;7.87;;;20.70;99.90;;;;;;4991330;28;20284;-76
2021/07/09 18:42:07;;;;;;;10.00;8.63;;;20.70;99.90;;;;;;4983328;28;20610;-76
2021/07/09 18:44:32;;;;;;;9.37;7.60;;;20.70;99.90;;;;;;4993680;28;20498;-77
2021/07/09 18:46:58;;;;;;;7.50;6.90;;;20.80;99.90;;;;;;4998549;28;20976;-75
2021/07/09 18:49:24;;;;;;;6.97;6.37;;;21.00;99.90;;;;;;5000068;28;20577;-76
2021/07/09 18:51:49;;;;;;;8.20;7.27;;;21.10;99.90;;;;;;4984579;28;20189;-76
2021/07/09 18:54:15;;;;;;;13.13;6.67;;;21.10;99.90;;;;;;4996141;28;20219;-76
2021/07/09 18:56:41;;;;;;;7.13;6.53;;;20.90;99.90;;;;;;4996176;28;20199;-77
2021/07/09 18:59:06;;;;;;;5.63;5.13;;;20.90;99.90;;;;;;4996762;28;20201;-75
2021/07/09 19:01:32;;;;;;;8.47;6.67;;;20.70;99.90;;;;;;4996290;28;20193;-75
2021/07/09 19:03:58;;;;;;;7.87;7.17;;;20.90;99.90;;;;;;4994401;28;20563;-75
2021/07/09 19:06:23;;;;;;;6.90;6.23;;;20.90;99.90;;;;;;4991770;28;20197;-75
2021/07/09 19:08:51;;;;;;;7.67;7.07;;;20.70;99.90;;;;;;4997480;28;20213;-74
2021/07/09 19:11:17;;;;;;;8.63;6.10;;;20.80;99.90;;;;;;4996878;28;20182;-75
2021/07/09 19:13:43;;;;;;;7.20;6.50;;;20.90;99.90;;;;;;4999536;28;20475;-77
2021/07/09 19:16:09;;;;;;;8.23;7.50;;;21.00;99.90;;;;;;4995002;28;20471;-75
2021/07/09 19:18:35;;;;;;;7.27;6.57;;;20.90;99.90;;;;;;4980224;28;20491;-75
2021/07/09 19:21:01;;;;;;;6.27;5.67;;;21.00;99.90;;;;;;4995055;28;20204;-75
2021/07/09 19:23:27;;;;;;;7.10;6.40;;;21.20;99.90;;;;;;4994326;28;20251;-75
2021/07/09 19:25:54;;;;;;;8.10;6.27;;;21.20;99.90;;;;;;4980511;28;20551;-75
2021/07/09 19:28:20;;;;;;;7.50;6.90;;;21.00;99.90;;;;;;5000826;28;20186;-76
2021/07/09 19:30:46;;;;;;;7.60;6.23;;;20.90;99.90;;;;;;4996956;28;20977;-75
2021/07/09 19:33:14;;;;;;;7.20;6.57;;;21.10;99.90;;;;;;4995501;28;20745;-76
2021/07/09 19:35:41;;;;;;;8.03;7.33;;;21.20;99.90;;;;;;4998455;28;20654;-76
2021/07/09 19:38:07;;;;;;;8.40;6.30;;;21.30;99.90;;;;;;4999662;28;20424;-75
2021/07/09 19:40:33;;;;;;;7.07;6.40;;;21.40;99.90;;;;;;4996498;28;20441;-76
2021/07/09 19:42:59;;;;;;;7.83;7.13;;;21.40;99.90;;;;;;4997194;28;20253;-77
2021/07/09 19:45:29;;;;;;;7.77;7.00;;;21.30;99.90;;;;;;4994753;28;20520;-74
2021/07/09 19:47:55;;;;;;;8.00;7.20;;;21.30;99.90;;;;;;4981348;28;20312;-76
2021/07/09 19:50:21;;;;;;;7.83;7.20;;;21.30;99.90;;;;;;4995689;28;21004;-75
2021/07/09 19:52:47;;;;;;;8.43;7.50;;;21.40;99.90;;;;;;4974402;28;20219;-77
2021/07/09 19:55:15;;;;;;;7.37;6.43;;;21.40;99.90;;;;;;4995602;28;20467;-76
2021/07/09 19:57:41;;;;;;;7.20;6.60;;;21.20;99.90;;;;;;4994783;28;20432;-75
2021/07/09 20:00:12;;;;;;;7.40;6.70;;;21.10;99.90;;;;;;4995171;28;20440;-76
2021/07/09 20:02:38;;;;;;;7.97;7.27;;;21.00;99.90;;;;;;4994907;28;20487;-75
2021/07/09 20:05:05;;;;;;;7.93;6.93;;;20.90;99.90;;;;;;4992483;28;20432;-76
2021/07/09 20:07:31;;;;;;;8.13;7.43;;;20.80;99.90;;;;;;4997161;28;20432;-76
2021/07/09 20:09:56;;;;;;;9.10;8.20;;;20.80;99.90;;;;;;4995708;28;20544;-76
2021/07/09 20:12:22;;;;;;;8.93;8.03;;;20.80;99.90;;;;;;4998057;28;20915;-76
2021/07/09 20:14:48;;;;;;;8.57;7.77;;;20.80;99.90;;;;;;4999872;28;20247;-76
2021/07/09 20:17:14;;;;;;;12.00;8.37;;;20.80;99.90;;;;;;5008578;28;20694;-76
2021/07/09 20:19:43;;;;;;;9.10;8.20;;;20.70;99.90;;;;;;4994396;28;20259;-77
2021/07/09 20:22:09;;;;;;;9.50;8.60;;;20.60;99.90;;;;;;4984190;28;20405;-76
2021/07/09 20:24:36;;;;;;;10.63;9.00;;;20.60;99.90;;;;;;4998153;28;20534;-76
2021/07/09 20:27:02;;;;;;;8.60;7.70;;;20.80;99.90;;;;;;4993768;28;20444;-76
2021/07/09 20:29:29;;;;;;;12.90;8.90;;;20.70;99.90;;;;;;5004315;28;20443;-74
2021/07/09 20:31:54;;;;;;;8.70;7.90;;;20.60;99.90;;;;;;5007682;28;20455;-74
2021/07/09 20:34:20;;;;;;;9.00;7.97;;;20.80;99.90;;;;;;5021472;28;20491;-75
2021/07/09 20:36:46;;;;;;;9.20;8.40;;;20.80;99.90;;;;;;5025701;28;20181;-76
2021/07/09 20:39:12;;;;;;;9.60;8.80;;;20.80;99.90;;;;;;5021318;28;20464;-75
2021/07/09 20:41:38;;;;;;;9.27;8.37;;;20.90;99.90;;;;;;5003094;28;20190;-76
2021/07/09 20:44:05;;;;;;;10.07;9.07;;;20.90;99.90;;;;;;4994276;28;20884;-76
2021/07/09 20:46:31;;;;;;;10.50;9.13;;;20.90;99.90;;;;;;4991877;28;20471;-75
2021/07/09 20:48:57;;;;;;;9.93;8.27;;;20.80;99.90;;;;;;4978200;28;20599;-76
2021/07/09 20:51:24;;;;;;;9.67;8.67;;;20.70;99.90;;;;;;4995163;28;20270;-75
2021/07/09 20:53:50;;;;;;;10.63;9.63;;;20.70;99.90;;;;;;4994816;28;20868;-77
2021/07/09 20:56:16;;;;;;;10.77;9.77;;;20.70;99.90;;;;;;4982804;28;20420;-77
2021/07/09 20:58:42;;;;;;;11.00;10.00;;;20.70;99.90;;;;;;4996135;28;20440;-76
2021/07/09 21:01:08;;;;;;;8.80;8.10;;;20.70;99.90;;;;;;4989162;28;20196;-76
2021/07/09 21:03:34;;;;;;;10.17;9.27;;;20.70;99.90;;;;;;4995233;28;20679;-74
2021/07/09 21:05:59;;;;;;;11.77;9.80;;;20.70;99.90;;;;;;4994140;28;20282;-76
2021/07/09 21:08:26;;;;;;;10.57;9.57;;;20.80;99.90;;;;;;4977544;28;20181;-76